createdAt,value
2023-01-23T00:01:38.984Z,81.80
2023-01-23T00:04:06.484Z,81.60
2023-01-23T00:06:33.747Z,81.60
2023-01-23T00:09:01.623Z,81.80
2023-01-23T00:11:30.481Z,81.70
2023-01-23T00:13:59.176Z,81.60
2023-01-23T00:16:28.376Z,81.40
2023-01-23T00:18:58.673Z,81.40
2023-01-23T00:21:29.710Z,81.40
2023-01-23T00:23:58.690Z,81.40
2023-01-23T00:26:28.708Z,81.40
2023-01-23T00:28:56.479Z,81.20
2023-01-23T00:31:26.423Z,81.10
2023-01-23T00:33:56.521Z,81.10
2023-01-23T00:36:26.614Z,81.10
2023-01-23T00:38:55.801Z,81.10
2023-01-23T00:41:39.607Z,80.80
2023-01-23T00:44:09.353Z,80.70
2023-01-23T00:46:42.721Z,80.70
2023-01-23T00:49:13.231Z,80.80
2023-01-23T00:51:45.923Z,80.70
2023-01-23T00:54:43.062Z,81.00
2023-01-23T00:57:24.210Z,80.80
2023-01-23T01:00:01.332Z,80.80
2023-01-23T01:02:47.324Z,80.90
2023-01-23T01:05:27.972Z,80.80
2023-01-23T01:08:34.660Z,80.80
2023-01-23T01:11:37.217Z,80.80
2023-01-23T01:14:12.260Z,80.90
2023-01-23T01:16:55.590Z,80.80
2023-01-23T01:27:18.338Z,80.70
2023-01-23T01:29:52.835Z,80.70
2023-01-23T01:32:47.828Z,80.50
2023-01-23T01:35:52.821Z,80.60
2023-01-23T01:44:02.831Z,80.60
2023-01-23T01:46:36.178Z,80.30
2023-01-23T01:49:35.783Z,80.40
2023-01-23T01:52:20.290Z,80.30
2023-01-23T01:55:03.770Z,80.30
2023-01-23T01:57:48.047Z,80.40
2023-01-23T02:00:42.587Z,80.40
2023-01-23T02:03:25.487Z,80.30
2023-01-23T02:05:58.653Z,80.40
2023-01-23T02:08:33.383Z,80.20
2023-01-23T02:11:03.887Z,80.20
2023-01-23T02:13:39.748Z,80.20
2023-01-23T02:16:13.672Z,80.20
2023-01-23T02:18:55.100Z,80.20
2023-01-23T02:21:33.774Z,80.20
2023-01-23T02:27:35.618Z,80.20
2023-01-23T02:30:11.217Z,80.00
2023-01-23T02:33:12.112Z,80.10
2023-01-23T02:35:45.588Z,80.20
2023-01-23T02:38:33.285Z,80.10
2023-01-23T02:41:21.120Z,80.20
2023-01-23T02:43:58.950Z,80.20
2023-01-23T02:47:10.868Z,80.10
2023-01-23T02:49:56.256Z,80.10
2023-01-23T02:52:34.564Z,80.20
2023-01-23T02:55:08.311Z,80.10
2023-01-23T02:57:38.690Z,80.00
2023-01-23T03:00:19.472Z,80.00
2023-01-23T03:03:14.686Z,80.10
2023-01-23T03:05:55.681Z,80.10
2023-01-23T03:08:27.039Z,80.20
2023-01-23T03:11:10.669Z,80.20
2023-01-23T03:13:46.589Z,80.20
2023-01-23T03:16:22.549Z,80.20
2023-01-23T03:19:16.406Z,80.20
2023-01-23T03:21:49.817Z,80.40
2023-01-23T03:24:32.479Z,80.30
2023-01-23T03:27:21.894Z,80.40
2023-01-23T03:30:12.380Z,80.50
2023-01-23T03:32:46.475Z,80.50
2023-01-23T03:35:24.668Z,80.50
2023-01-23T03:37:57.159Z,80.70
2023-01-23T03:40:47.221Z,80.60
2023-01-23T03:43:22.246Z,80.70
2023-01-23T06:47:54.419Z,83.10
2023-01-23T07:07:56.487Z,83.40
2023-01-23T07:32:19.321Z,83.80
